sensor_id;sensor_type;location;lat;lon;timestamp;P1;durP1;ratioP1;P2;durP2;ratioP2
32872;SDS011;19224;52.462;16.898;2022-12-18T00:00:49;47.13;;;18.57;;
32872;SDS011;19224;52.462;16.898;2022-12-18T00:03:20;53.30;;;20.63;;
32872;SDS011;19224;52.462;16.898;2022-12-18T00:05:51;53.17;;;21.40;;
32872;SDS011;19224;52.462;16.898;2022-12-18T00:08:21;54.20;;;21.27;;
32872;SDS011;19224;52.462;16.898;2022-12-18T00:10:52;53.37;;;20.13;;
32872;SDS011;19224;52.462;16.898;2022-12-18T00:13:23;46.27;;;19.53;;
32872;SDS011;19224;52.462;16.898;2022-12-18T00:15:53;80.50;;;32.87;;
32872;SDS011;19224;52.462;16.898;2022-12-18T00:18:23;59.30;;;22.83;;
32872;SDS011;19224;52.462;16.898;2022-12-18T00:20:54;60.57;;;22.73;;
32872;SDS011;19224;52.462;16.898;2022-12-18T00:23:29;55.97;;;20.33;;
32872;SDS011;19224;52.462;16.898;2022-12-18T00:26:02;59.83;;;22.17;;
32872;SDS011;19224;52.462;16.898;2022-12-18T00:28:37;50.13;;;19.93;;
32872;SDS011;19224;52.462;16.898;2022-12-18T00:31:09;57.43;;;21.03;;
32872;SDS011;19224;52.462;16.898;2022-12-18T00:33:43;54.37;;;21.80;;
32872;SDS011;19224;52.462;16.898;2022-12-18T00:36:23;54.20;;;22.10;;
32872;SDS011;19224;52.462;16.898;2022-12-18T00:38:58;63.00;;;21.43;;
32872;SDS011;19224;52.462;16.898;2022-12-18T00:41:25;61.67;;;22.50;;
32872;SDS011;19224;52.462;16.898;2022-12-18T00:44:14;54.67;;;20.90;;
32872;SDS011;19224;52.462;16.898;2022-12-18T00:46:46;54.67;;;20.20;;
32872;SDS011;19224;52.462;16.898;2022-12-18T00:49:17;52.13;;;18.87;;
32872;SDS011;19224;52.462;16.898;2022-12-18T00:51:49;66.77;;;22.13;;
32872;SDS011;19224;52.462;16.898;2022-12-18T00:54:19;59.07;;;21.53;;
32872;SDS011;19224;52.462;16.898;2022-12-18T00:56:50;57.43;;;21.27;;
32872;SDS011;19224;52.462;16.898;2022-12-18T00:59:20;59.30;;;21.13;;
32872;SDS011;19224;52.462;16.898;2022-12-18T01:01:51;43.30;;;17.87;;
32872;SDS011;19224;52.462;16.898;2022-12-18T01:04:21;55.20;;;19.47;;
32872;SDS011;19224;52.462;16.898;2022-12-18T01:06:52;48.47;;;18.87;;
32872;SDS011;19224;52.462;16.898;2022-12-18T01:09:23;55.97;;;21.00;;
32872;SDS011;19224;52.462;16.898;2022-12-18T01:11:53;55.87;;;20.70;;
32872;SDS011;19224;52.462;16.898;2022-12-18T01:14:24;59.93;;;20.73;;
32872;SDS011;19224;52.462;16.898;2022-12-18T01:16:55;62.23;;;21.73;;
32872;SDS011;19224;52.462;16.898;2022-12-18T01:19:25;56.97;;;21.97;;
32872;SDS011;19224;52.462;16.898;2022-12-18T01:21:56;56.73;;;21.80;;
32872;SDS011;19224;52.462;16.898;2022-12-18T01:24:27;52.73;;;19.47;;
32872;SDS011;19224;52.462;16.898;2022-12-18T01:26:58;56.33;;;20.40;;
32872;SDS011;19224;52.462;16.898;2022-12-18T01:29:28;51.63;;;20.17;;
32872;SDS011;19224;52.462;16.898;2022-12-18T01:31:58;67.50;;;22.87;;
32872;SDS011;19224;52.462;16.898;2022-12-18T01:34:29;61.03;;;24.03;;
32872;SDS011;19224;52.462;16.898;2022-12-18T01:37:01;61.00;;;20.97;;
32872;SDS011;19224;52.462;16.898;2022-12-18T01:39:33;58.97;;;20.37;;
32872;SDS011;19224;52.462;16.898;2022-12-18T01:42:05;52.53;;;19.97;;
32872;SDS011;19224;52.462;16.898;2022-12-18T01:47:38;57.03;;;20.13;;
32872;SDS011;19224;52.462;16.898;2022-12-18T01:53:10;56.13;;;19.83;;
32872;SDS011;19224;52.462;16.898;2022-12-18T01:56:00;49.93;;;19.17;;
32872;SDS011;19224;52.462;16.898;2022-12-18T02:01:23;62.10;;;20.07;;
32872;SDS011;19224;52.462;16.898;2022-12-18T02:03:54;56.00;;;18.40;;
32872;SDS011;19224;52.462;16.898;2022-12-18T02:06:32;60.57;;;20.40;;
32872;SDS011;19224;52.462;16.898;2022-12-18T02:09:08;63.13;;;20.67;;
32872;SDS011;19224;52.462;16.898;2022-12-18T02:14:44;64.97;;;22.33;;
32872;SDS011;19224;52.462;16.898;2022-12-18T02:17:36;58.00;;;21.63;;
32872;SDS011;19224;52.462;16.898;2022-12-18T02:20:19;59.50;;;21.77;;
32872;SDS011;19224;52.462;16.898;2022-12-18T02:26:14;49.20;;;18.63;;
32872;SDS011;19224;52.462;16.898;2022-12-18T02:29:00;52.50;;;19.57;;
32872;SDS011;19224;52.462;16.898;2022-12-18T02:31:40;52.60;;;19.23;;
32872;SDS011;19224;52.462;16.898;2022-12-18T02:34:17;56.60;;;20.23;;
32872;SDS011;19224;52.462;16.898;2022-12-18T02:36:51;60.93;;;20.20;;
32872;SDS011;19224;52.462;16.898;2022-12-18T02:39:23;57.00;;;21.37;;
32872;SDS011;19224;52.462;16.898;2022-12-18T02:41:56;55.13;;;20.10;;
32872;SDS011;19224;52.462;16.898;2022-12-18T02:44:30;61.70;;;21.63;;
32872;SDS011;19224;52.462;16.898;2022-12-18T02:47:00;61.40;;;20.57;;
32872;SDS011;19224;52.462;16.898;2022-12-18T02:52:30;50.90;;;18.20;;
32872;SDS011;19224;52.462;16.898;2022-12-18T02:55:07;48.43;;;18.87;;
32872;SDS011;19224;52.462;16.898;2022-12-18T02:57:54;48.13;;;19.00;;
32872;SDS011;19224;52.462;16.898;2022-12-18T03:00:37;53.10;;;19.30;;
32872;SDS011;19224;52.462;16.898;2022-12-18T03:03:36;54.80;;;20.00;;
32872;SDS011;19224;52.462;16.898;2022-12-18T03:06:30;60.60;;;21.10;;
32872;SDS011;19224;52.462;16.898;2022-12-18T03:09:17;61.00;;;21.67;;
32872;SDS011;19224;52.462;16.898;2022-12-18T03:12:17;57.77;;;21.30;;
32872;SDS011;19224;52.462;16.898;2022-12-18T03:14:57;60.97;;;21.60;;
32872;SDS011;19224;52.462;16.898;2022-12-18T03:17:50;58.90;;;21.37;;
32872;SDS011;19224;52.462;16.898;2022-12-18T03:20:23;75.40;;;26.03;;
32872;SDS011;19224;52.462;16.898;2022-12-18T03:23:07;52.70;;;21.87;;
32872;SDS011;19224;52.462;16.898;2022-12-18T03:25:33;59.60;;;20.40;;
32872;SDS011;19224;52.462;16.898;2022-12-18T03:28:08;60.63;;;20.67;;
32872;SDS011;19224;52.462;16.898;2022-12-18T03:30:43;55.90;;;20.53;;
32872;SDS011;19224;52.462;16.898;2022-12-18T03:33:21;54.53;;;18.93;;
32872;SDS011;19224;52.462;16.898;2022-12-18T03:36:00;51.67;;;18.47;;
32872;SDS011;19224;52.462;16.898;2022-12-18T03:38:31;44.90;;;17.70;;
32872;SDS011;19224;52.462;16.898;2022-12-18T03:41:07;44.37;;;16.83;;
32872;SDS011;19224;52.462;16.898;2022-12-18T03:43:54;55.77;;;17.97;;
32872;SDS011;19224;52.462;16.898;2022-12-18T03:46:49;49.03;;;19.33;;
32872;SDS011;19224;52.462;16.898;2022-12-18T03:49:47;55.17;;;20.47;;
32872;SDS011;19224;52.462;16.898;2022-12-18T03:52:37;51.93;;;19.37;;
32872;SDS011;19224;52.462;16.898;2022-12-18T03:55:20;58.73;;;19.67;;
32872;SDS011;19224;52.462;16.898;2022-12-18T03:57:53;57.40;;;21.00;;
32872;SDS011;19224;52.462;16.898;2022-12-18T04:00:25;59.40;;;20.57;;
32872;SDS011;19224;52.462;16.898;2022-12-18T04:02:58;55.87;;;19.87;;
32872;SDS011;19224;52.462;16.898;2022-12-18T04:05:31;58.23;;;21.17;;
32872;SDS011;19224;52.462;16.898;2022-12-18T04:08:05;61.97;;;22.07;;
32872;SDS011;19224;52.462;16.898;2022-12-18T04:10:35;65.97;;;21.43;;
32872;SDS011;19224;52.462;16.898;2022-12-18T04:13:06;59.33;;;21.13;;
32872;SDS011;19224;52.462;16.898;2022-12-18T04:15:38;56.50;;;20.20;;
32872;SDS011;19224;52.462;16.898;2022-12-18T04:18:09;53.40;;;19.77;;
32872;SDS011;19224;52.462;16.898;2022-12-18T04:20:39;52.33;;;20.07;;
32872;SDS011;19224;52.462;16.898;2022-12-18T04:23:09;57.00;;;20.97;;
32872;SDS011;19224;52.462;16.898;2022-12-18T04:25:40;56.47;;;20.10;;
32872;SDS011;19224;52.462;16.898;2022-12-18T04:28:10;56.27;;;20.60;;
32872;SDS011;19224;52.462;16.898;2022-12-18T04:30:41;60.60;;;20.90;;
32872;SDS011;19224;52.462;16.898;2022-12-18T04:33:11;57.57;;;19.97;;
32872;SDS011;19224;52.462;16.898;2022-12-18T04:35:42;51.90;;;18.87;;
32872;SDS011;19224;52.462;16.898;2022-12-18T04:38:13;48.67;;;19.37;;
32872;SDS011;19224;52.462;16.898;2022-12-18T04:40:44;45.13;;;17.60;;
32872;SDS011;19224;52.462;16.898;2022-12-18T04:43:14;46.17;;;18.87;;
32872;SDS011;19224;52.462;16.898;2022-12-18T04:45:44;50.37;;;17.73;;
32872;SDS011;19224;52.462;16.898;2022-12-18T04:48:15;49.23;;;19.07;;
32872;SDS011;19224;52.462;16.898;2022-12-18T04:50:46;55.50;;;18.67;;
32872;SDS011;19224;52.462;16.898;2022-12-18T04:53:17;51.57;;;18.93;;
32872;SDS011;19224;52.462;16.898;2022-12-18T04:55:47;48.40;;;17.57;;
32872;SDS011;19224;52.462;16.898;2022-12-18T04:58:18;43.97;;;16.97;;
32872;SDS011;19224;52.462;16.898;2022-12-18T05:00:48;42.27;;;16.50;;
32872;SDS011;19224;52.462;16.898;2022-12-18T05:03:18;43.30;;;16.57;;
32872;SDS011;19224;52.462;16.898;2022-12-18T05:05:49;44.13;;;15.43;;
32872;SDS011;19224;52.462;16.898;2022-12-18T05:08:21;41.60;;;15.80;;
32872;SDS011;19224;52.462;16.898;2022-12-18T05:10:59;40.37;;;15.27;;
32872;SDS011;19224;52.462;16.898;2022-12-18T05:13:35;44.43;;;15.90;;
32872;SDS011;19224;52.462;16.898;2022-12-18T05:16:07;44.87;;;17.20;;
32872;SDS011;19224;52.462;16.898;2022-12-18T05:18:38;45.70;;;17.63;;
32872;SDS011;19224;52.462;16.898;2022-12-18T05:21:09;44.90;;;16.10;;
32872;SDS011;19224;52.462;16.898;2022-12-18T05:23:39;43.43;;;17.00;;
32872;SDS011;19224;52.462;16.898;2022-12-18T05:26:09;46.27;;;16.60;;
32872;SDS011;19224;52.462;16.898;2022-12-18T05:28:45;47.20;;;17.07;;
32872;SDS011;19224;52.462;16.898;2022-12-18T05:31:15;49.43;;;16.77;;
32872;SDS011;19224;52.462;16.898;2022-12-18T05:33:46;46.77;;;17.70;;
32872;SDS011;19224;52.462;16.898;2022-12-18T05:36:16;51.20;;;18.17;;
32872;SDS011;19224;52.462;16.898;2022-12-18T05:38:47;49.00;;;18.30;;
32872;SDS011;19224;52.462;16.898;2022-12-18T05:41:17;50.77;;;19.73;;
32872;SDS011;19224;52.462;16.898;2022-12-18T05:43:48;52.50;;;18.13;;
32872;SDS011;19224;52.462;16.898;2022-12-18T05:46:18;47.33;;;17.73;;
32872;SDS011;19224;52.462;16.898;2022-12-18T05:48:49;47.20;;;17.93;;
32872;SDS011;19224;52.462;16.898;2022-12-18T05:51:20;58.33;;;18.60;;
32872;SDS011;19224;52.462;16.898;2022-12-18T05:53:51;52.90;;;18.43;;
32872;SDS011;19224;52.462;16.898;2022-12-18T05:56:22;51.73;;;18.83;;
32872;SDS011;19224;52.462;16.898;2022-12-18T05:58:53;46.73;;;17.90;;
32872;SDS011;19224;52.462;16.898;2022-12-18T06:01:24;48.67;;;18.43;;
32872;SDS011;19224;52.462;16.898;2022-12-18T06:03:55;49.73;;;19.40;;
32872;SDS011;19224;52.462;16.898;2022-12-18T06:06:26;46.80;;;17.20;;
32872;SDS011;19224;52.462;16.898;2022-12-18T06:08:58;52.20;;;17.77;;
32872;SDS011;19224;52.462;16.898;2022-12-18T06:11:29;50.07;;;17.97;;
32872;SDS011;19224;52.462;16.898;2022-12-18T06:14:00;54.30;;;20.43;;
32872;SDS011;19224;52.462;16.898;2022-12-18T06:16:31;64.70;;;24.60;;
32872;SDS011;19224;52.462;16.898;2022-12-18T06:19:03;57.13;;;20.03;;
32872;SDS011;19224;52.462;16.898;2022-12-18T06:21:34;52.33;;;17.70;;
32872;SDS011;19224;52.462;16.898;2022-12-18T06:24:05;51.13;;;18.87;;
32872;SDS011;19224;52.462;16.898;2022-12-18T06:26:41;49.73;;;17.77;;
32872;SDS011;19224;52.462;16.898;2022-12-18T06:29:08;52.83;;;18.70;;
32872;SDS011;19224;52.462;16.898;2022-12-18T06:31:38;48.60;;;18.13;;
32872;SDS011;19224;52.462;16.898;2022-12-18T06:34:08;47.90;;;17.30;;
32872;SDS011;19224;52.462;16.898;2022-12-18T06:36:39;48.73;;;17.90;;
32872;SDS011;19224;52.462;16.898;2022-12-18T06:39:09;52.17;;;18.73;;
32872;SDS011;19224;52.462;16.898;2022-12-18T06:41:40;52.97;;;17.93;;
32872;SDS011;19224;52.462;16.898;2022-12-18T06:44:10;53.90;;;18.67;;
32872;SDS011;19224;52.462;16.898;2022-12-18T06:46:40;47.83;;;18.43;;
32872;SDS011;19224;52.462;16.898;2022-12-18T06:49:11;46.10;;;17.33;;
32872;SDS011;19224;52.462;16.898;2022-12-18T06:52:01;49.80;;;16.20;;
32872;SDS011;19224;52.462;16.898;2022-12-18T06:54:31;42.00;;;16.00;;
32872;SDS011;19224;52.462;16.898;2022-12-18T06:57:01;42.10;;;15.47;;
32872;SDS011;19224;52.462;16.898;2022-12-18T06:59:32;45.90;;;16.37;;
32872;SDS011;19224;52.462;16.898;2022-12-18T07:02:02;47.20;;;17.40;;
32872;SDS011;19224;52.462;16.898;2022-12-18T07:04:32;53.60;;;18.13;;
32872;SDS011;19224;52.462;16.898;2022-12-18T07:07:03;60.47;;;19.27;;
32872;SDS011;19224;52.462;16.898;2022-12-18T07:09:33;51.93;;;17.87;;
32872;SDS011;19224;52.462;16.898;2022-12-18T07:12:04;50.33;;;18.50;;
32872;SDS011;19224;52.462;16.898;2022-12-18T07:14:35;46.93;;;16.87;;
32872;SDS011;19224;52.462;16.898;2022-12-18T07:17:07;48.17;;;17.97;;
32872;SDS011;19224;52.462;16.898;2022-12-18T07:19:42;49.80;;;18.27;;
32872;SDS011;19224;52.462;16.898;2022-12-18T07:22:13;48.80;;;17.33;;
32872;SDS011;19224;52.462;16.898;2022-12-18T07:24:43;54.73;;;18.87;;
32872;SDS011;19224;52.462;16.898;2022-12-18T07:27:14;57.27;;;18.97;;
32872;SDS011;19224;52.462;16.898;2022-12-18T07:29:44;54.53;;;19.33;;
32872;SDS011;19224;52.462;16.898;2022-12-18T07:32:14;49.63;;;18.60;;
32872;SDS011;19224;52.462;16.898;2022-12-18T07:34:45;59.83;;;20.03;;
32872;SDS011;19224;52.462;16.898;2022-12-18T07:37:15;49.73;;;17.73;;
32872;SDS011;19224;52.462;16.898;2022-12-18T07:39:46;52.63;;;19.23;;
32872;SDS011;19224;52.462;16.898;2022-12-18T07:42:16;58.27;;;19.37;;
32872;SDS011;19224;52.462;16.898;2022-12-18T07:44:59;54.77;;;19.43;;
32872;SDS011;19224;52.462;16.898;2022-12-18T07:47:31;58.20;;;19.07;;
32872;SDS011;19224;52.462;16.898;2022-12-18T07:50:06;68.00;;;21.83;;
32872;SDS011;19224;52.462;16.898;2022-12-18T07:52:37;57.33;;;19.30;;
32872;SDS011;19224;52.462;16.898;2022-12-18T07:55:08;62.10;;;19.77;;
32872;SDS011;19224;52.462;16.898;2022-12-18T07:57:38;57.60;;;20.63;;
32872;SDS011;19224;52.462;16.898;2022-12-18T08:00:09;56.57;;;20.37;;
32872;SDS011;19224;52.462;16.898;2022-12-18T08:02:40;59.83;;;20.10;;
32872;SDS011;19224;52.462;16.898;2022-12-18T08:05:11;62.00;;;21.00;;
32872;SDS011;19224;52.462;16.898;2022-12-18T08:07:42;61.83;;;21.83;;
32872;SDS011;19224;52.462;16.898;2022-12-18T08:10:12;65.97;;;22.23;;
32872;SDS011;19224;52.462;16.898;2022-12-18T08:12:43;55.80;;;19.73;;
32872;SDS011;19224;52.462;16.898;2022-12-18T08:15:14;63.67;;;21.53;;
32872;SDS011;19224;52.462;16.898;2022-12-18T08:17:44;59.80;;;21.07;;
32872;SDS011;19224;52.462;16.898;2022-12-18T08:20:15;57.07;;;19.93;;
32872;SDS011;19224;52.462;16.898;2022-12-18T08:22:45;56.10;;;20.10;;
32872;SDS011;19224;52.462;16.898;2022-12-18T08:25:16;58.73;;;20.83;;
32872;SDS011;19224;52.462;16.898;2022-12-18T08:27:46;54.63;;;20.03;;
32872;SDS011;19224;52.462;16.898;2022-12-18T08:30:16;56.73;;;20.40;;
32872;SDS011;19224;52.462;16.898;2022-12-18T08:32:47;56.97;;;20.60;;
32872;SDS011;19224;52.462;16.898;2022-12-18T08:35:21;58.90;;;20.07;;
32872;SDS011;19224;52.462;16.898;2022-12-18T08:37:51;64.70;;;20.13;;
32872;SDS011;19224;52.462;16.898;2022-12-18T08:40:21;61.50;;;20.07;;
32872;SDS011;19224;52.462;16.898;2022-12-18T08:42:52;55.47;;;19.67;;
32872;SDS011;19224;52.462;16.898;2022-12-18T08:45:40;57.33;;;20.57;;
32872;SDS011;19224;52.462;16.898;2022-12-18T08:48:11;63.97;;;20.97;;
32872;SDS011;19224;52.462;16.898;2022-12-18T08:50:42;65.57;;;22.27;;
32872;SDS011;19224;52.462;16.898;2022-12-18T08:53:12;60.67;;;21.43;;
32872;SDS011;19224;52.462;16.898;2022-12-18T08:55:42;60.93;;;21.70;;
32872;SDS011;19224;52.462;16.898;2022-12-18T08:58:13;52.97;;;19.13;;
32872;SDS011;19224;52.462;16.898;2022-12-18T09:00:43;53.83;;;19.27;;
32872;SDS011;19224;52.462;16.898;2022-12-18T09:03:15;50.83;;;19.43;;
32872;SDS011;19224;52.462;16.898;2022-12-18T09:05:49;58.07;;;20.70;;
32872;SDS011;19224;52.462;16.898;2022-12-18T09:08:20;58.87;;;21.73;;
32872;SDS011;19224;52.462;16.898;2022-12-18T09:10:51;56.20;;;20.60;;
32872;SDS011;19224;52.462;16.898;2022-12-18T09:13:22;64.17;;;21.30;;
32872;SDS011;19224;52.462;16.898;2022-12-18T09:15:53;65.20;;;22.03;;
32872;SDS011;19224;52.462;16.898;2022-12-18T09:18:24;54.37;;;20.40;;
32872;SDS011;19224;52.462;16.898;2022-12-18T09:20:55;64.40;;;22.73;;
32872;SDS011;19224;52.462;16.898;2022-12-18T09:23:25;65.73;;;23.67;;
32872;SDS011;19224;52.462;16.898;2022-12-18T09:25:58;61.73;;;23.67;;
32872;SDS011;19224;52.462;16.898;2022-12-18T09:28:30;73.90;;;28.93;;
32872;SDS011;19224;52.462;16.898;2022-12-18T09:31:03;58.63;;;21.43;;
32872;SDS011;19224;52.462;16.898;2022-12-18T09:33:43;54.70;;;20.47;;
32872;SDS011;19224;52.462;16.898;2022-12-18T09:36:16;53.80;;;20.57;;
32872;SDS011;19224;52.462;16.898;2022-12-18T09:38:53;57.10;;;21.50;;
32872;SDS011;19224;52.462;16.898;2022-12-18T09:44:11;58.97;;;22.10;;
32872;SDS011;19224;52.462;16.898;2022-12-18T09:47:02;53.70;;;21.90;;
32872;SDS011;19224;52.462;16.898;2022-12-18T09:49:45;53.03;;;20.53;;
32872;SDS011;19224;52.462;16.898;2022-12-18T09:55:17;57.27;;;22.43;;
32872;SDS011;19224;52.462;16.898;2022-12-18T09:58:03;53.47;;;22.03;;
32872;SDS011;19224;52.462;16.898;2022-12-18T10:00:54;52.20;;;21.17;;
32872;SDS011;19224;52.462;16.898;2022-12-18T10:03:25;52.53;;;20.77;;
32872;SDS011;19224;52.462;16.898;2022-12-18T10:09:42;56.57;;;22.80;;
32872;SDS011;19224;52.462;16.898;2022-12-18T10:11:27;57.20;;;22.83;;
32872;SDS011;19224;52.462;16.898;2022-12-18T10:17:51;68.27;;;25.70;;
32872;SDS011;19224;52.462;16.898;2022-12-18T10:20:51;67.43;;;27.87;;
32872;SDS011;19224;52.462;16.898;2022-12-18T10:23:33;64.63;;;24.07;;
32872;SDS011;19224;52.462;16.898;2022-12-18T10:26:10;68.63;;;24.57;;
32872;SDS011;19224;52.462;16.898;2022-12-18T10:28:41;60.37;;;24.50;;
32872;SDS011;19224;52.462;16.898;2022-12-18T10:31:17;64.73;;;26.43;;
32872;SDS011;19224;52.462;16.898;2022-12-18T10:33:47;61.13;;;25.53;;
32872;SDS011;19224;52.462;16.898;2022-12-18T10:36:20;65.37;;;24.33;;
32872;SDS011;19224;52.462;16.898;2022-12-18T10:38:52;62.20;;;26.30;;
32872;SDS011;19224;52.462;16.898;2022-12-18T10:41:30;70.13;;;24.67;;
32872;SDS011;19224;52.462;16.898;2022-12-18T10:44:18;59.30;;;24.73;;
32872;SDS011;19224;52.462;16.898;2022-12-18T10:46:53;54.40;;;22.77;;
32872;SDS011;19224;52.462;16.898;2022-12-18T10:49:31;52.77;;;22.87;;
32872;SDS011;19224;52.462;16.898;2022-12-18T10:52:15;56.60;;;23.57;;
32872;SDS011;19224;52.462;16.898;2022-12-18T10:54:59;52.27;;;22.37;;
32872;SDS011;19224;52.462;16.898;2022-12-18T10:57:35;51.63;;;21.97;;
32872;SDS011;19224;52.462;16.898;2022-12-18T11:00:26;55.27;;;23.17;;
32872;SDS011;19224;52.462;16.898;2022-12-18T11:02:58;52.10;;;23.07;;
32872;SDS011;19224;52.462;16.898;2022-12-18T11:05:30;52.37;;;21.93;;
32872;SDS011;19224;52.462;16.898;2022-12-18T11:08:10;46.00;;;20.20;;
32872;SDS011;19224;52.462;16.898;2022-12-18T11:10:40;46.63;;;21.30;;
32872;SDS011;19224;52.462;16.898;2022-12-18T11:13:19;52.03;;;21.80;;
32872;SDS011;19224;52.462;16.898;2022-12-18T11:15:52;49.13;;;21.73;;
32872;SDS011;19224;52.462;16.898;2022-12-18T11:18:27;49.37;;;21.87;;
32872;SDS011;19224;52.462;16.898;2022-12-18T11:21:08;49.40;;;22.43;;
32872;SDS011;19224;52.462;16.898;2022-12-18T11:23:48;51.53;;;21.83;;
32872;SDS011;19224;52.462;16.898;2022-12-18T11:26:21;54.07;;;23.27;;
32872;SDS011;19224;52.462;16.898;2022-12-18T11:29:08;52.47;;;24.87;;
32872;SDS011;19224;52.462;16.898;2022-12-18T11:31:41;51.07;;;23.53;;
32872;SDS011;19224;52.462;16.898;2022-12-18T11:36:49;50.07;;;22.50;;
32872;SDS011;19224;52.462;16.898;2022-12-18T11:39:24;50.07;;;22.63;;
32872;SDS011;19224;52.462;16.898;2022-12-18T11:44:55;52.13;;;24.27;;
32872;SDS011;19224;52.462;16.898;2022-12-18T11:47:49;50.37;;;22.47;;
32872;SDS011;19224;52.462;16.898;2022-12-18T11:53:19;52.47;;;23.13;;
32872;SDS011;19224;52.462;16.898;2022-12-18T12:01:45;50.07;;;22.87;;
32872;SDS011;19224;52.462;16.898;2022-12-18T12:07:47;46.10;;;20.70;;
32872;SDS011;19224;52.462;16.898;2022-12-18T12:10:33;48.40;;;21.77;;
32872;SDS011;19224;52.462;16.898;2022-12-18T12:16:24;48.93;;;22.57;;
32872;SDS011;19224;52.462;16.898;2022-12-18T12:25:35;40.43;;;20.00;;
32872;SDS011;19224;52.462;16.898;2022-12-18T12:31:25;41.93;;;19.17;;
32872;SDS011;19224;52.462;16.898;2022-12-18T12:34:16;46.83;;;21.00;;
32872;SDS011;19224;52.462;16.898;2022-12-18T12:36:57;50.60;;;20.73;;
32872;SDS011;19224;52.462;16.898;2022-12-18T12:39:44;46.33;;;20.53;;
32872;SDS011;19224;52.462;16.898;2022-12-18T12:42:18;43.10;;;19.90;;
32872;SDS011;19224;52.462;16.898;2022-12-18T12:45:16;40.17;;;19.00;;
32872;SDS011;19224;52.462;16.898;2022-12-18T12:47:47;45.40;;;20.57;;
32872;SDS011;19224;52.462;16.898;2022-12-18T12:50:19;47.57;;;22.90;;
32872;SDS011;19224;52.462;16.898;2022-12-18T12:52:54;46.13;;;21.63;;
32872;SDS011;19224;52.462;16.898;2022-12-18T12:55:27;49.43;;;22.00;;
32872;SDS011;19224;52.462;16.898;2022-12-18T13:13:07;42.77;;;19.50;;
32872;SDS011;19224;52.462;16.898;2022-12-18T13:16:03;43.53;;;20.30;;
32872;SDS011;19224;52.462;16.898;2022-12-18T13:18:35;41.50;;;18.23;;
32872;SDS011;19224;52.462;16.898;2022-12-18T13:21:42;36.13;;;18.67;;
32872;SDS011;19224;52.462;16.898;2022-12-18T13:23:52;45.40;;;19.67;;
32872;SDS011;19224;52.462;16.898;2022-12-18T13:29:04;41.90;;;19.33;;
32872;SDS011;19224;52.462;16.898;2022-12-18T13:34:23;39.57;;;18.13;;
32872;SDS011;19224;52.462;16.898;2022-12-18T13:43:22;41.63;;;19.80;;
32872;SDS011;19224;52.462;16.898;2022-12-18T13:46:01;44.13;;;19.70;;
32872;SDS011;19224;52.462;16.898;2022-12-18T13:48:36;32.23;;;17.23;;
32872;SDS011;19224;52.462;16.898;2022-12-18T13:51:08;42.83;;;19.30;;
32872;SDS011;19224;52.462;16.898;2022-12-18T13:56:31;46.80;;;21.33;;
32872;SDS011;19224;52.462;16.898;2022-12-18T13:59:08;40.90;;;19.17;;
32872;SDS011;19224;52.462;16.898;2022-12-18T14:04:27;47.27;;;21.03;;
32872;SDS011;19224;52.462;16.898;2022-12-18T14:09:45;44.70;;;21.27;;
32872;SDS011;19224;52.462;16.898;2022-12-18T14:12:30;46.10;;;20.07;;
32872;SDS011;19224;52.462;16.898;2022-12-18T14:20:56;51.40;;;22.73;;
32872;SDS011;19224;52.462;16.898;2022-12-18T14:23:33;52.13;;;23.87;;
32872;SDS011;19224;52.462;16.898;2022-12-18T14:26:25;52.97;;;22.53;;
32872;SDS011;19224;52.462;16.898;2022-12-18T14:29:00;55.73;;;25.03;;
32872;SDS011;19224;52.462;16.898;2022-12-18T14:32:11;58.30;;;25.20;;
32872;SDS011;19224;52.462;16.898;2022-12-18T14:34:50;60.33;;;27.17;;
32872;SDS011;19224;52.462;16.898;2022-12-18T14:37:23;58.67;;;26.67;;
32872;SDS011;19224;52.462;16.898;2022-12-18T14:39:59;59.90;;;25.80;;
32872;SDS011;19224;52.462;16.898;2022-12-18T14:42:32;49.43;;;23.57;;
32872;SDS011;19224;52.462;16.898;2022-12-18T14:45:32;57.27;;;24.63;;
32872;SDS011;19224;52.462;16.898;2022-12-18T14:51:00;57.93;;;24.30;;
32872;SDS011;19224;52.462;16.898;2022-12-18T14:53:37;53.47;;;23.97;;
32872;SDS011;19224;52.462;16.898;2022-12-18T14:58:58;53.17;;;24.70;;
32872;SDS011;19224;52.462;16.898;2022-12-18T15:01:38;61.20;;;25.77;;
32872;SDS011;19224;52.462;16.898;2022-12-18T15:04:30;53.80;;;24.10;;
32872;SDS011;19224;52.462;16.898;2022-12-18T15:07:07;62.20;;;26.20;;
32872;SDS011;19224;52.462;16.898;2022-12-18T15:09:44;54.10;;;23.87;;
32872;SDS011;19224;52.462;16.898;2022-12-18T15:12:37;55.20;;;24.53;;
32872;SDS011;19224;52.462;16.898;2022-12-18T15:15:43;57.90;;;25.03;;
32872;SDS011;19224;52.462;16.898;2022-12-18T15:20:49;60.47;;;23.83;;
32872;SDS011;19224;52.462;16.898;2022-12-18T15:23:45;53.70;;;22.70;;
32872;SDS011;19224;52.462;16.898;2022-12-18T15:26:19;55.83;;;23.00;;
32872;SDS011;19224;52.462;16.898;2022-12-18T15:28:51;53.50;;;23.23;;
32872;SDS011;19224;52.462;16.898;2022-12-18T15:31:29;54.00;;;22.60;;
32872;SDS011;19224;52.462;16.898;2022-12-18T15:36:51;48.80;;;21.43;;
32872;SDS011;19224;52.462;16.898;2022-12-18T15:39:43;49.97;;;22.77;;
32872;SDS011;19224;52.462;16.898;2022-12-18T15:42:18;49.17;;;23.47;;
32872;SDS011;19224;52.462;16.898;2022-12-18T15:45:11;53.83;;;22.17;;
32872;SDS011;19224;52.462;16.898;2022-12-18T15:47:42;52.30;;;21.63;;
32872;SDS011;19224;52.462;16.898;2022-12-18T15:50:13;50.70;;;22.30;;
32872;SDS011;19224;52.462;16.898;2022-12-18T15:52:49;52.27;;;23.10;;
32872;SDS011;19224;52.462;16.898;2022-12-18T15:55:23;55.50;;;22.70;;
32872;SDS011;19224;52.462;16.898;2022-12-18T15:58:11;51.97;;;21.87;;
32872;SDS011;19224;52.462;16.898;2022-12-18T16:00:42;63.20;;;28.27;;
32872;SDS011;19224;52.462;16.898;2022-12-18T16:03:14;55.83;;;22.23;;
32872;SDS011;19224;52.462;16.898;2022-12-18T16:05:44;46.00;;;22.40;;
32872;SDS011;19224;52.462;16.898;2022-12-18T16:08:14;53.27;;;23.27;;
32872;SDS011;19224;52.462;16.898;2022-12-18T16:10:47;48.33;;;20.83;;
32872;SDS011;19224;52.462;16.898;2022-12-18T16:13:18;47.50;;;21.43;;
32872;SDS011;19224;52.462;16.898;2022-12-18T16:15:49;52.10;;;22.97;;
32872;SDS011;19224;52.462;16.898;2022-12-18T16:18:20;51.83;;;22.40;;
32872;SDS011;19224;52.462;16.898;2022-12-18T16:20:50;51.67;;;23.87;;
32872;SDS011;19224;52.462;16.898;2022-12-18T16:23:21;58.70;;;23.27;;
32872;SDS011;19224;52.462;16.898;2022-12-18T16:25:53;53.47;;;23.40;;
32872;SDS011;19224;52.462;16.898;2022-12-18T16:28:23;50.00;;;21.37;;
32872;SDS011;19224;52.462;16.898;2022-12-18T16:30:54;48.97;;;21.10;;
32872;SDS011;19224;52.462;16.898;2022-12-18T16:33:24;42.73;;;19.63;;
32872;SDS011;19224;52.462;16.898;2022-12-18T16:35:54;50.43;;;22.27;;
32872;SDS011;19224;52.462;16.898;2022-12-18T16:38:25;55.40;;;22.93;;
32872;SDS011;19224;52.462;16.898;2022-12-18T16:40:55;53.53;;;21.63;;
32872;SDS011;19224;52.462;16.898;2022-12-18T16:43:43;47.93;;;22.00;;
32872;SDS011;19224;52.462;16.898;2022-12-18T16:46:13;52.47;;;24.10;;